Time;durP1;ratioP1;P1;durP2;ratioP2;P2;SDS_P1;SDS_P2;PMS_P1;PMS_P2;Temp;Humidity;BMP_temperature;BMP_pressure;BME280_temperature;BME280_humidity;BME280_pressure;Samples;Min_cycle;Max_cycle;Signal;HPM_P1;HPM_P2
2021/12/25 00:01:08;;;;;;;7.82;4.32;;;5.60;99.90;;;3.91;100.00;100085.69;2569410;30;138141;-41
2021/12/25 00:03:37;;;;;;;7.30;4.47;;;5.60;99.90;;;3.91;100.00;100088.38;2568521;30;138326;-41
2021/12/25 00:06:06;;;;;;;6.88;4.78;;;5.60;99.90;;;3.85;100.00;100088.13;2566521;30;138201;-41
2021/12/25 00:08:34;;;;;;;7.43;4.53;;;5.60;99.90;;;3.84;100.00;100089.13;2568695;30;137537;-40
2021/12/25 00:11:04;;;;;;;7.82;5.40;;;5.60;99.90;;;3.82;100.00;100082.25;2568606;30;138381;-41
2021/12/25 00:13:32;;;;;;;9.23;5.60;;;5.60;99.90;;;3.83;100.00;100082.06;2569451;30;137314;-40
2021/12/25 00:16:00;;;;;;;7.40;4.90;;;5.60;99.90;;;3.83;100.00;100079.38;2568168;30;137438;-41
2021/12/25 00:18:28;;;;;;;9.65;5.03;;;5.60;99.90;;;3.79;100.00;100071.81;2568567;30;136694;-41
2021/12/25 00:20:58;;;;;;;8.77;5.18;;;5.60;99.90;;;3.81;100.00;100070.63;2568619;30;139093;-40
2021/12/25 00:23:26;;;;;;;10.07;5.53;;;5.60;99.90;;;3.87;100.00;100071.75;2566567;30;138265;-41
2021/12/25 00:26:00;;;;;;;8.13;4.95;;;5.60;99.90;;;3.84;100.00;100070.25;2567662;30;138349;-41
2021/12/25 00:31:27;;;;;;;10.55;5.40;;;5.60;99.90;;;3.72;100.00;100077.16;2566893;30;137514;-41
2021/12/25 00:33:59;;;;;;;10.45;5.68;;;5.50;99.90;;;3.79;100.00;100085.31;2567836;30;138319;-41
2021/12/25 00:36:27;;;;;;;8.50;4.95;;;5.50;99.90;;;3.73;100.00;100090.44;2568425;30;138128;-40
2021/12/25 00:38:55;;;;;;;8.18;5.22;;;5.50;99.90;;;3.68;100.00;100098.25;2566674;30;136705;-40
2021/12/25 00:41:24;;;;;;;8.80;5.57;;;5.40;99.90;;;3.66;100.00;100096.75;2565222;30;138370;-41
2021/12/25 00:43:53;;;;;;;10.85;5.65;;;5.40;99.90;;;3.71;100.00;100091.63;2567070;30;137600;-41
2021/12/25 00:46:21;;;;;;;10.85;6.15;;;5.50;99.90;;;3.65;100.00;100092.38;2567390;30;140057;-41
2021/12/25 00:48:50;;;;;;;8.63;4.90;;;5.40;99.90;;;3.63;100.00;100095.28;2568189;30;137869;-41
2021/12/25 00:51:18;;;;;;;10.65;6.40;;;5.40;99.90;;;3.64;100.00;100098.81;2567899;30;139185;-41
2021/12/25 00:53:45;;;;;;;8.82;5.43;;;5.40;99.90;;;3.60;100.00;100101.88;2568788;30;139174;-41
2021/12/25 00:56:13;;;;;;;15.20;6.45;;;5.40;99.90;;;3.63;100.00;100105.22;2567231;30;138346;-41
2021/12/25 00:58:41;;;;;;;10.15;6.00;;;5.40;99.90;;;3.67;100.00;100111.91;2568343;30;138264;-41
2021/12/25 01:01:10;;;;;;;11.38;6.10;;;5.40;99.90;;;3.62;100.00;100101.69;2567534;30;139061;-41
2021/12/25 01:03:40;;;;;;;10.10;6.35;;;5.40;99.90;;;3.58;100.00;100103.91;2566129;30;137735;-40
2021/12/25 01:06:10;;;;;;;10.00;5.95;;;5.40;99.90;;;3.66;100.00;100102.16;2566578;30;139927;-41
2021/12/25 01:08:38;;;;;;;11.15;6.43;;;5.40;99.90;;;3.64;100.00;100102.34;2566958;30;139736;-40
2021/12/25 01:11:06;;;;;;;11.02;6.22;;;5.40;99.90;;;3.58;100.00;100093.13;2568867;30;139116;-41
2021/12/25 01:13:39;;;;;;;8.07;4.85;;;5.40;99.90;;;3.58;100.00;100097.66;2568406;30;139833;-40
2021/12/25 01:16:54;;;;;;;8.40;4.95;;;5.40;99.90;;;3.52;100.00;100082.22;2568164;30;138814;-40
2021/12/25 01:22:08;;;;;;;7.82;4.70;;;5.30;99.90;;;3.45;100.00;100076.75;2567163;30;138299;-40
2021/12/25 01:29:50;;;;;;;8.82;5.18;;;5.20;99.90;;;3.33;100.00;100078.22;2567930;30;139819;-40
2021/12/25 01:40:56;;;;;;;10.52;5.90;;;5.00;99.90;;;3.24;100.00;100086.38;2568222;30;136950;-41
2021/12/25 01:49:42;;;;;;;11.10;6.32;;;5.00;99.90;;;3.17;100.00;100102.44;2566830;30;139775;-40
2021/12/25 01:52:10;;;;;;;11.65;6.22;;;5.00;99.90;;;3.12;100.00;100104.84;2566863;30;139105;-40
2021/12/25 01:54:38;;;;;;;10.32;6.30;;;4.90;99.90;;;3.12;100.00;100109.38;2568200;30;139150;-40
2021/12/25 01:57:08;;;;;;;11.00;6.35;;;4.90;99.90;;;2.91;100.00;100075.03;2567601;30;137032;-41
2021/12/25 01:59:36;;;;;;;11.20;6.65;;;4.90;99.90;;;3.17;100.00;100124.00;2567130;30;140477;-40
2021/12/25 02:02:06;;;;;;;11.23;6.80;;;5.00;99.90;;;3.11;100.00;100116.66;2567477;30;138461;-40
2021/12/25 02:04:34;;;;;;;13.77;7.70;;;4.90;99.90;;;3.08;100.00;100114.31;2568104;30;138059;-41
2021/12/25 02:07:02;;;;;;;12.95;7.90;;;4.90;99.90;;;3.11;100.00;100105.00;2568227;30;137197;-41
2021/12/25 02:09:29;;;;;;;13.93;7.95;;;4.90;99.90;;;3.05;100.00;100103.06;2566116;30;140123;-41
2021/12/25 02:11:57;;;;;;;12.93;7.40;;;4.90;99.90;;;2.95;100.00;100104.13;2567986;30;139888;-41
2021/12/25 02:14:25;;;;;;;15.52;9.27;;;4.80;99.90;;;3.09;100.00;100110.59;2567866;30;139847;-41
2021/12/25 02:16:58;;;;;;;;;;;4.80;99.90;;;3.08;100.00;100113.47;2565724;30;138925;-40
2021/12/25 02:19:41;;;;;;;14.75;8.93;;;4.90;99.90;;;3.02;100.00;100118.56;2568210;30;139572;-41
2021/12/25 02:22:09;;;;;;;15.63;8.95;;;4.80;99.90;;;3.00;100.00;100115.22;2566862;30;138091;-40
2021/12/25 02:24:39;;;;;;;15.88;9.85;;;4.80;99.90;;;3.00;100.00;100115.22;2566420;30;140339;-40
2021/12/25 02:27:07;;;;;;;15.20;9.25;;;4.80;99.90;;;3.00;100.00;100101.75;2568565;30;137420;-40
2021/12/25 02:29:34;;;;;;;;;;;4.80;99.90;;;2.95;100.00;100106.84;2567656;30;140058;-40
2021/12/25 02:32:04;;;;;;;16.55;9.18;;;4.80;99.90;;;2.82;100.00;100098.50;2567579;30;138479;-41
2021/12/25 02:34:35;;;;;;;15.68;9.35;;;4.70;99.90;;;2.77;100.00;100090.13;2567714;30;139254;-40
2021/12/25 02:37:03;;;;;;;;;;;4.70;99.90;;;2.82;100.00;100087.72;2568289;30;138768;-41
2021/12/25 02:39:35;;;;;;;15.27;8.55;;;4.70;99.90;;;2.76;100.00;100100.03;2567825;30;138702;-40
2021/12/25 02:42:04;;;;;;;14.43;8.43;;;4.60;99.90;;;2.65;100.00;100089.69;2568133;30;138434;-41
2021/12/25 02:44:31;;;;;;;15.10;9.40;;;4.50;99.90;;;2.56;100.00;100091.59;2566437;30;139350;-40
2021/12/25 02:47:08;;;;;;;14.77;8.93;;;4.50;99.90;;;2.57;100.00;100095.97;2568997;30;138425;-41
2021/12/25 02:49:37;;;;;;;14.27;8.77;;;4.40;99.90;;;2.53;100.00;100092.81;2565499;30;139536;-40
2021/12/25 02:52:06;;;;;;;15.50;9.23;;;4.40;99.90;;;2.51;100.00;100094.00;2567502;30;137304;-41
2021/12/25 02:54:35;;;;;;;14.13;8.70;;;4.40;99.90;;;2.57;100.00;100090.59;2565732;30;139593;-40
2021/12/25 02:57:03;;;;;;;15.98;8.98;;;4.30;99.90;;;2.55;100.00;100095.31;2567130;30;138348;-40
2021/12/25 02:59:31;;;;;;;14.23;8.00;;;4.40;99.90;;;2.51;100.00;100094.81;2567795;30;140444;-41
2021/12/25 03:02:16;;;;;;;17.35;8.48;;;4.30;99.90;;;2.48;100.00;100088.97;2564433;30;139306;-40
2021/12/25 03:04:49;;;;;;;12.98;7.53;;;4.30;99.90;;;2.43;100.00;100092.19;2565214;30;138067;-40
2021/12/25 03:07:17;;;;;;;15.80;9.20;;;4.30;99.90;;;2.38;100.00;100089.19;2567496;30;138136;-40
2021/12/25 03:09:47;;;;;;;12.55;7.72;;;4.20;99.90;;;2.33;100.00;100092.41;2567597;30;138442;-40
2021/12/25 03:12:17;;;;;;;12.82;7.90;;;4.20;99.90;;;2.26;100.00;100081.50;2568964;30;136987;-40
2021/12/25 03:17:48;;;;;;;12.52;7.60;;;4.10;99.90;;;2.25;100.00;100087.06;2566922;30;137141;-36
2021/12/25 03:20:16;;;;;;;13.60;7.93;;;4.10;99.90;;;2.15;100.00;100087.28;2568310;30;136995;-36
2021/12/25 03:22:44;;;;;;;;;;;4.00;99.90;;;2.10;100.00;100079.72;2568901;30;137080;-36
2021/12/25 03:25:14;;;;;;;15.27;8.00;;;4.00;99.90;;;2.14;100.00;100081.06;2564369;30;140350;-36
2021/12/25 03:27:45;;;;;;;14.82;8.88;;;4.00;99.90;;;2.09;100.00;100086.13;2566930;30;136864;-36
2021/12/25 03:30:16;;;;;;;14.38;8.77;;;3.90;99.90;;;2.11;100.00;100088.63;2564996;30;139773;-36
2021/12/25 03:32:45;;;;;;;15.23;9.32;;;4.00;99.90;;;2.06;100.00;100093.72;2568306;30;137491;-36
2021/12/25 03:35:13;;;;;;;15.15;9.30;;;3.90;99.90;;;2.04;100.00;100091.19;2566976;30;140016;-36
2021/12/25 03:37:41;;;;;;;;;;;3.90;99.90;;;2.05;100.00;100098.25;2568002;30;139879;-36
2021/12/25 03:40:09;;;;;;;15.70;8.52;;;3.90;99.90;;;2.00;100.00;100104.16;2567638;30;137702;-36
2021/12/25 03:42:37;;;;;;;14.30;8.38;;;3.90;99.90;;;1.99;100.00;100105.19;2567367;30;138958;-36
2021/12/25 03:45:05;;;;;;;16.10;9.70;;;3.80;99.90;;;1.93;100.00;100108.53;2566714;30;139084;-36
2021/12/25 03:47:37;;;;;;;16.15;8.18;;;3.80;99.90;;;1.97;100.00;100107.19;2568099;30;137211;-36
2021/12/25 03:53:22;;;;;;;14.15;8.45;;;3.80;99.90;;;1.91;100.00;100102.50;2567397;30;138693;-36
2021/12/25 03:58:37;;;;;;;15.68;9.18;;;3.70;99.90;;;1.82;100.00;100100.84;2567364;30;137533;-36
2021/12/25 04:04:21;;;;;;;14.13;8.75;;;3.70;99.90;;;1.83;100.00;100099.84;2568513;30;136772;-36
2021/12/25 04:07:01;;;;;;;15.38;8.88;;;3.70;99.90;;;1.89;100.00;100114.47;2566258;30;139301;-36
2021/12/25 04:09:33;;;;;;;15.68;9.75;;;3.70;99.90;;;1.75;100.00;100110.63;2567470;30;138961;-36
2021/12/25 04:12:08;;;;;;;15.02;9.30;;;3.60;99.90;;;1.72;100.00;100109.97;2565760;30;139957;-36
2021/12/25 04:14:38;;;;;;;15.82;9.95;;;3.60;99.90;;;1.72;100.00;100106.44;2566896;30;138273;-36
2021/12/25 04:17:07;;;;;;;16.20;9.85;;;3.60;99.90;;;1.72;100.00;100109.13;2567156;30;139476;-36
2021/12/25 04:19:37;;;;;;;14.80;9.77;;;3.60;99.90;;;1.70;100.00;100106.59;2565763;30;138425;-36
2021/12/25 04:22:11;;;;;;;14.25;9.68;;;3.60;99.90;;;1.67;100.00;100117.69;2566749;30;136786;-36
2021/12/25 04:24:42;;;;;;;14.73;8.93;;;3.50;99.90;;;1.61;100.00;100117.56;2567197;30;139074;-36
2021/12/25 04:27:13;;;;;;;17.70;10.23;;;3.50;99.90;;;1.54;100.00;100118.22;2568029;30;137407;-36
2021/12/25 05:05:45;;;;;;;18.33;10.65;;;3.10;99.90;;;1.16;100.00;100155.56;2565602;30;139193;-36
2021/12/25 05:08:28;;;;;;;19.98;11.38;;;3.10;99.90;;;1.13;100.00;100151.34;2566283;30;138723;-37
2021/12/25 05:10:57;;;;;;;22.45;12.18;;;3.00;99.90;;;1.15;100.00;100151.19;2567843;30;139076;-36
2021/12/25 05:13:25;;;;;;;19.08;10.98;;;3.00;99.90;;;1.12;100.00;100157.72;2567772;30;138112;-36
2021/12/25 05:15:53;;;;;;;19.33;11.13;;;3.00;99.90;;;1.07;100.00;100159.25;2565420;30;140606;-36
2021/12/25 05:18:21;;;;;;;19.95;11.68;;;3.00;99.90;;;1.00;100.00;100153.69;2568495;30;136889;-36
2021/12/25 05:20:48;;;;;;;18.88;11.65;;;2.90;99.90;;;1.03;100.00;100161.41;2569037;30;138967;-36
2021/12/25 05:23:16;;;;;;;;;;;2.90;99.90;;;1.06;100.00;100162.91;2569213;30;139111;-36
2021/12/25 05:25:44;;;;;;;18.42;10.70;;;2.90;99.90;;;1.03;100.00;100155.19;2565677;30;139868;-36
2021/12/25 05:28:13;;;;;;;18.95;11.32;;;2.90;99.90;;;0.97;100.00;100152.16;2568275;30;137489;-36
2021/12/25 05:30:41;;;;;;;22.67;11.73;;;2.90;99.90;;;1.01;100.00;100160.75;2567728;30;138797;-36
2021/12/25 05:33:29;;;;;;;19.50;10.27;;;2.90;99.90;;;0.93;100.00;100161.56;2568280;30;137387;-36
2021/12/25 05:36:24;;;;;;;16.40;10.02;;;2.90;99.90;;;0.99;100.00;100163.59;2567162;30;137133;-36
2021/12/25 05:39:13;;;;;;;20.92;10.82;;;2.80;99.90;;;0.90;100.00;100167.28;2566161;30;136909;-36
2021/12/25 05:41:44;;;;;;;18.25;10.00;;;2.80;99.90;;;0.90;100.00;100161.91;2568125;30;140538;-36
2021/12/25 05:44:18;;;;;;;18.25;10.95;;;2.80;99.90;;;0.83;100.00;100163.56;2568320;30;137193;-35
2021/12/25 05:47:06;;;;;;;17.17;9.95;;;2.80;99.90;;;0.85;100.00;100167.75;2567693;30;139133;-36
2021/12/25 05:49:38;;;;;;;19.05;10.73;;;2.70;99.90;;;0.84;100.00;100162.56;2567437;30;139334;-36
2021/12/25 05:52:28;;;;;;;16.77;9.68;;;2.70;99.90;;;0.83;100.00;100158.22;2566495;30;138253;-36
2021/12/25 05:55:16;;;;;;;17.23;10.15;;;2.70;99.90;;;0.80;100.00;100163.91;2567281;30;139099;-36
2021/12/25 05:58:04;;;;;;;16.38;9.15;;;2.70;99.90;;;0.75;100.00;100167.09;2569881;30;136874;-36
2021/12/25 06:00:43;;;;;;;13.85;7.97;;;2.60;99.90;;;0.68;100.00;100171.44;2567817;30;139600;-36
2021/12/25 06:03:11;;;;;;;17.95;9.68;;;2.60;99.90;;;0.56;100.00;100165.53;2567775;30;139632;-36
2021/12/25 06:05:40;;;;;;;13.82;8.55;;;2.50;99.90;;;0.62;100.00;100180.13;2567412;30;137444;-36
2021/12/25 06:08:09;;;;;;;14.23;7.88;;;2.50;99.90;;;0.62;100.00;100177.44;2567311;30;141490;-36
2021/12/25 06:10:37;;;;;;;14.75;8.40;;;2.50;99.90;;;0.57;100.00;100177.94;2568022;30;139818;-36
2021/12/25 06:13:05;;;;;;;15.20;8.75;;;2.50;99.90;;;0.53;100.00;100185.47;2567385;30;139872;-36
2021/12/25 06:15:37;;;;;;;16.55;9.13;;;2.40;99.90;;;0.53;100.00;100188.16;2567701;30;136968;-36
2021/12/25 06:18:15;;;;;;;16.13;9.27;;;2.40;99.90;;;0.41;100.00;100195.66;2568308;30;139901;-36
2021/12/25 06:20:49;;;;;;;16.00;8.73;;;2.40;99.90;;;0.45;100.00;100189.97;2569088;30;139512;-36
2021/12/25 06:23:34;;;;;;;14.80;7.82;;;2.40;99.90;;;0.37;100.00;100196.13;2567721;30;139952;-36
2021/12/25 06:26:23;;;;;;;13.60;8.45;;;2.30;99.90;;;0.35;100.00;100200.81;2566599;30;137635;-36
2021/12/25 06:29:19;;;;;;;12.63;7.72;;;2.30;99.90;;;0.35;100.00;100203.50;2568673;30;137614;-36
2021/12/25 06:32:08;;;;;;;14.90;8.25;;;2.20;99.90;;;0.23;100.00;100203.81;2568361;30;136754;-36
2021/12/25 06:35:03;;;;;;;15.13;8.25;;;2.20;99.90;;;0.21;100.00;100204.94;2567019;30;137464;-36
2021/12/25 06:37:50;;;;;;;15.65;8.45;;;2.20;99.90;;;0.14;100.00;100208.28;2567661;30;137851;-36
2021/12/25 06:40:47;;;;;;;14.52;8.15;;;2.10;99.90;;;0.01;100.00;100207.88;2565104;30;137024;-36
2021/12/25 06:43:15;;;;;;;12.35;8.15;;;2.00;99.90;;;-0.02;100.00;100211.72;2567003;30;137460;-36
2021/12/25 06:45:42;;;;;;;13.00;7.40;;;1.90;99.90;;;-0.02;100.00;100208.16;2567072;30;141328;-36
2021/12/25 06:48:10;;;;;;;;;;;1.90;99.90;;;-0.06;100.00;100213.03;2567225;30;138764;-36
2021/12/25 06:50:56;;;;;;;13.63;7.80;;;1.90;99.90;;;-0.07;100.00;100218.53;2567764;30;136756;-36
2021/12/25 06:53:43;;;;;;;14.20;8.25;;;1.90;99.90;;;-0.04;100.00;100227.13;2568352;30;138347;-38
2021/12/25 06:56:32;;;;;;;13.85;7.95;;;1.90;99.90;;;-0.13;100.00;100228.06;2567206;30;140272;-36
2021/12/25 06:59:04;;;;;;;13.95;8.10;;;1.80;99.90;;;-0.13;100.00;100227.22;2568361;30;139601;-36
2021/12/25 07:01:38;;;;;;;14.27;8.20;;;1.80;99.90;;;-0.12;100.00;100228.91;2566701;30;138411;-36
2021/12/25 07:04:09;;;;;;;14.18;8.20;;;1.80;99.90;;;-0.16;100.00;100234.59;2567353;30;138867;-36
2021/12/25 07:07:17;;;;;;;13.27;8.02;;;1.80;99.90;;;-0.23;100.00;100235.34;2566848;30;137150;-36
2021/12/25 07:10:07;;;;;;;14.60;8.07;;;1.70;99.90;;;-0.20;100.00;100245.78;2566622;30;138919;-36
2021/12/25 07:13:08;;;;;;;14.48;8.25;;;1.70;99.90;;;-0.27;100.00;100244.72;2567505;30;137156;-36
2021/12/25 07:15:39;;;;;;;13.82;7.95;;;1.70;99.90;;;-0.24;100.00;100255.13;2567977;30;138985;-36
2021/12/25 07:18:36;;;;;;;15.30;8.18;;;1.70;99.90;;;-0.33;100.00;100259.56;2567398;30;139838;-36
2021/12/25 07:21:21;;;;;;;14.32;8.45;;;1.60;99.90;;;-0.32;100.00;100264.78;2567512;30;138631;-36
2021/12/25 07:24:03;;;;;;;14.68;8.90;;;1.60;99.90;;;-0.38;100.00;100256.53;2567957;30;140552;-36
2021/12/25 07:26:36;;;;;;;13.68;8.00;;;1.60;99.90;;;-0.39;100.00;100265.56;2567099;30;139271;-36
2021/12/25 07:29:34;;;;;;;13.27;8.23;;;1.60;99.90;;;-0.39;100.00;100271.78;2568141;30;137659;-36
2021/12/25 07:32:02;;;;;;;13.77;8.65;;;1.50;99.90;;;-0.40;100.00;100270.06;2567503;30;137429;-36
2021/12/25 07:34:29;;;;;;;15.00;8.93;;;1.60;99.90;;;-0.39;100.00;100277.16;2567348;30;139064;-35
2021/12/25 07:36:57;;;;;;;16.02;8.63;;;1.60;99.90;;;-0.39;100.00;100277.16;2567571;30;137653;-36
2021/12/25 07:39:25;;;;;;;14.32;8.63;;;1.60;99.90;;;-0.37;100.00;100285.00;2568307;30;138577;-36
2021/12/25 07:41:52;;;;;;;13.68;8.05;;;1.60;99.90;;;-0.39;100.00;100284.31;2568346;30;137561;-36
2021/12/25 07:44:26;;;;;;;12.82;8.18;;;1.60;99.90;;;-0.45;100.00;100280.41;2565374;30;138253;-36
2021/12/25 07:46:59;;;;;;;15.13;8.57;;;1.50;99.90;;;-0.44;100.00;100282.97;2568475;30;137550;-36
2021/12/25 07:49:27;;;;;;;15.52;8.50;;;1.50;99.90;;;-0.51;100.00;100289.06;2567608;30;138312;-36
2021/12/25 07:51:55;;;;;;;14.10;8.77;;;1.50;99.90;;;-0.54;100.00;100292.91;2567678;30;137357;-36
2021/12/25 07:54:22;;;;;;;14.85;8.95;;;1.40;99.90;;;-0.52;100.00;100295.44;2567355;30;138290;-36
2021/12/25 07:56:50;;;;;;;15.85;9.15;;;1.40;99.90;;;-0.55;100.00;100293.88;2567299;30;138323;-36
2021/12/25 07:59:19;;;;;;;15.48;8.52;;;1.40;99.90;;;-0.51;100.00;100297.97;2567467;30;137452;-36
2021/12/25 08:01:48;;;;;;;14.25;8.88;;;1.40;99.90;;;-0.55;100.00;100299.25;2567711;30;137485;-36
2021/12/25 08:04:18;;;;;;;14.57;8.77;;;1.40;99.90;;;-0.53;100.00;100302.66;2564731;30;138679;-35
2021/12/25 08:06:46;;;;;;;15.20;9.10;;;1.40;99.90;;;-0.58;100.00;100302.25;2567011;30;139685;-36
2021/12/25 08:09:17;;;;;;;14.73;8.80;;;1.40;99.90;;;-0.59;100.00;100306.78;2566602;30;138224;-36
2021/12/25 08:11:44;;;;;;;14.70;8.93;;;1.30;99.90;;;-0.56;100.00;100302.94;2565532;30;137189;-36
2021/12/25 08:14:13;;;;;;;13.32;8.15;;;1.40;99.90;;;-0.57;100.00;100309.28;2567951;30;139152;-36
2021/12/25 08:16:41;;;;;;;14.43;8.73;;;1.40;99.90;;;-0.58;100.00;100315.63;2569252;30;137673;-36
2021/12/25 08:19:09;;;;;;;14.90;9.10;;;1.40;99.90;;;-0.61;100.00;100299.88;2565857;30;140034;-36
2021/12/25 08:22:14;;;;;;;14.10;8.52;;;1.30;99.90;;;-0.56;100.00;100319.00;2567204;30;136945;-36
2021/12/25 08:25:01;;;;;;;16.85;8.82;;;1.30;99.90;;;-0.59;100.00;100309.44;2566331;30;136931;-36
2021/12/25 08:27:47;;;;;;;15.43;8.95;;;1.30;99.90;;;-0.63;100.00;100321.47;2569362;30;136868;-36
2021/12/25 08:30:30;;;;;;;14.32;8.25;;;1.30;99.90;;;-0.57;100.00;100322.69;2567952;30;137173;-36
2021/12/25 08:33:16;;;;;;;13.70;8.15;;;1.40;99.90;;;-0.59;100.00;100332.72;2568160;30;136654;-36
2021/12/25 08:36:03;;;;;;;14.52;8.63;;;1.30;99.90;;;-0.63;100.00;100334.88;2568435;30;137275;-36
2021/12/25 08:38:30;;;;;;;;;;;1.30;99.90;;;-0.63;100.00;100334.00;2566440;30;137209;-36
2021/12/25 08:40:58;;;;;;;14.60;8.65;;;1.30;99.90;;;-0.61;100.00;100337.38;2567146;30;138315;-36
2021/12/25 08:43:25;;;;;;;15.43;9.25;;;1.30;99.90;;;-0.60;100.00;100347.09;2568339;30;137615;-36
2021/12/25 08:46:03;;;;;;;12.55;7.57;;;1.30;99.90;;;-0.62;100.00;100343.75;2567777;30;139043;-36
2021/12/25 08:48:30;;;;;;;14.40;8.40;;;1.30;99.90;;;-0.60;100.00;100347.97;2568647;30;137645;-38
2021/12/25 08:51:02;;;;;;;14.15;8.20;;;1.30;99.90;;;-0.62;100.00;100352.63;2569137;30;137448;-36
2021/12/25 08:53:32;;;;;;;16.73;9.45;;;1.30;99.90;;;-0.73;100.00;100342.97;2569750;30;137260;-36
2021/12/25 08:56:00;;;;;;;18.33;9.88;;;1.30;99.90;;;-0.66;100.00;100350.41;2566800;30;137890;-36
2021/12/25 08:58:30;;;;;;;15.88;8.98;;;1.30;99.90;;;-0.64;100.00;100349.28;2568946;30;138558;-36
2021/12/25 09:01:06;;;;;;;16.58;9.32;;;1.30;99.90;;;-0.63;100.00;100360.81;2567437;30;139128;-36
2021/12/25 09:03:34;;;;;;;16.55;8.45;;;1.30;99.90;;;-0.62;100.00;100362.50;2568318;30;137533;-38
2021/12/25 09:06:03;;;;;;;15.23;8.52;;;1.30;99.90;;;-0.59;100.00;100355.00;2565893;30;138956;-36
2021/12/25 09:08:31;;;;;;;15.02;9.05;;;1.30;99.90;;;-0.61;100.00;100351.63;2568614;30;137008;-36
2021/12/25 09:11:00;;;;;;;13.60;8.43;;;1.30;99.90;;;-0.61;100.00;100361.50;2568917;30;139790;-36
2021/12/25 09:13:28;;;;;;;14.77;8.77;;;1.30;99.90;;;-0.64;100.00;100359.97;2568545;30;137514;-36
2021/12/25 09:15:55;;;;;;;16.75;9.18;;;1.30;99.90;;;-0.60;100.00;100363.19;2570266;30;137469;-40
2021/12/25 09:18:23;;;;;;;15.02;9.23;;;1.30;99.90;;;-0.54;100.00;100375.97;2568087;30;138229;-40
2021/12/25 09:20:50;;;;;;;16.63;9.30;;;1.40;99.90;;;-0.59;100.00;100363.06;2568834;30;137498;-40
2021/12/25 09:23:18;;;;;;;15.25;9.25;;;1.40;99.90;;;-0.62;100.00;100365.19;2568375;30;137446;-40
2021/12/25 09:25:46;;;;;;;16.55;9.02;;;1.30;99.90;;;-0.56;100.00;100361.88;2567397;30;139125;-40
2021/12/25 09:28:15;;;;;;;16.20;8.85;;;1.30;99.90;;;-0.63;100.00;100367.03;2565814;30;136715;-40
2021/12/25 09:30:42;;;;;;;15.52;8.95;;;1.30;99.90;;;-0.59;100.00;100373.78;2568615;30;138148;-40
2021/12/25 09:33:11;;;;;;;15.07;8.90;;;1.30;99.90;;;-0.55;100.00;100376.97;2568127;30;138519;-40
2021/12/25 09:35:38;;;;;;;13.02;8.50;;;1.40;99.90;;;-0.61;100.00;100378.44;2566313;30;137544;-40
2021/12/25 09:38:06;;;;;;;16.95;8.77;;;1.30;99.90;;;-0.59;100.00;100383.63;2567654;30;136950;-40
2021/12/25 09:40:33;;;;;;;15.20;9.13;;;1.30;99.90;;;-0.60;100.00;100380.13;2567785;30;137517;-40
2021/12/25 09:43:02;;;;;;;15.48;9.00;;;1.30;99.90;;;-0.59;100.00;100389.00;2567879;30;138319;-40
2021/12/25 09:45:30;;;;;;;15.48;8.90;;;1.30;99.90;;;-0.62;100.00;100394.66;2569282;30;137581;-40
2021/12/25 09:47:58;;;;;;;14.68;8.32;;;1.30;99.90;;;-0.51;100.00;100385.56;2568060;30;136767;-40
2021/12/25 09:50:26;;;;;;;13.40;8.20;;;1.40;99.90;;;-0.56;100.00;100390.53;2567436;30;136720;-40
2021/12/25 09:52:54;;;;;;;12.00;7.63;;;1.30;99.90;;;-0.53;100.00;100391.09;2567684;30;138382;-40
2021/12/25 09:55:21;;;;;;;13.80;8.23;;;1.40;99.90;;;-0.39;100.00;100394.25;2566868;30;138409;-40
2021/12/25 09:57:49;;;;;;;10.45;7.15;;;1.50;99.90;;;-0.42;100.00;100399.91;2567969;30;137489;-40
2021/12/25 10:00:22;;;;;;;12.13;7.25;;;1.50;99.90;;;-0.39;100.00;100405.81;2566640;30;139146;-40
2021/12/25 10:02:56;;;;;;;13.02;7.47;;;1.50;99.90;;;-0.41;100.00;100396.22;2568294;30;136818;-40
2021/12/25 10:05:30;;;;;;;12.13;7.32;;;1.50;99.90;;;-0.36;100.00;100396.59;2568835;30;137082;-40
2021/12/25 10:08:14;;;;;;;10.52;6.35;;;1.60;99.90;;;-0.36;100.00;100400.16;2565561;30;137022;-41
2021/12/25 10:11:01;;;;;;;10.95;7.03;;;1.60;99.90;;;-0.29;100.00;100403.03;2568014;30;138218;-40
2021/12/25 10:13:37;;;;;;;12.07;6.30;;;1.60;99.90;;;-0.27;100.00;100403.72;2567594;30;138178;-40
2021/12/25 10:16:37;;;;;;;11.27;6.00;;;1.60;99.90;;;-0.31;100.00;100403.22;2565270;30;138241;-40
2021/12/25 10:19:18;;;;;;;8.68;5.10;;;1.60;99.90;;;-0.36;100.00;100410.88;2568067;30;137464;-40
2021/12/25 10:21:46;;;;;;;10.05;5.50;;;1.60;99.90;;;-0.36;100.00;100412.69;2567638;30;136905;-40
2021/12/25 10:24:27;;;;;;;11.40;5.70;;;1.60;99.90;;;-0.41;100.00;100406.94;2568198;30;136863;-41
2021/12/25 10:27:20;;;;;;;11.07;5.43;;;1.50;99.90;;;-0.35;100.00;100414.38;2567953;30;139170;-41
2021/12/25 10:29:59;;;;;;;9.75;5.20;;;1.50;99.90;;;-0.31;100.00;100408.56;2568092;30;138299;-40
2021/12/25 10:32:26;;;;;;;9.52;5.88;;;1.60;99.90;;;-0.33;100.00;100404.34;2568547;30;138305;-41
2021/12/25 10:34:55;;;;;;;8.90;5.10;;;1.50;99.90;;;-0.28;100.00;100393.19;2565831;30;137190;-41
2021/12/25 10:37:23;;;;;;;7.53;4.80;;;1.60;99.90;;;-0.28;100.00;100395.84;2567207;30;138611;-40
2021/12/25 10:39:52;;;;;;;7.28;4.75;;;1.60;99.90;;;-0.28;100.00;100393.19;2567464;30;137634;-41
2021/12/25 10:42:22;;;;;;;7.50;4.82;;;1.60;99.90;;;-0.21;100.00;100392.44;2567398;30;137808;-40
2021/12/25 10:44:55;;;;;;;8.93;4.50;;;1.70;99.90;;;-0.27;100.00;100395.69;2567636;30;138301;-40
2021/12/25 10:47:28;;;;;;;7.53;4.68;;;1.70;99.90;;;-0.21;100.00;100391.56;2568192;30;136824;-40
2021/12/25 10:50:18;;;;;;;9.70;4.97;;;1.70;99.90;;;-0.19;100.00;100384.22;2568298;30;136791;-41
2021/12/25 10:52:47;;;;;;;9.02;4.68;;;1.70;99.90;;;-0.15;100.00;100381.09;2567419;30;139081;-40
2021/12/25 10:55:22;;;;;;;8.27;4.53;;;1.70;99.90;;;-0.17;100.00;100390.25;2567634;30;137454;-40
2021/12/25 10:57:59;;;;;;;7.88;4.38;;;1.80;99.90;;;-0.11;100.00;100386.13;2567030;30;139103;-40
2021/12/25 11:00:28;;;;;;;6.78;4.40;;;1.80;99.90;;;-0.07;100.00;100387.50;2569058;30;138446;-40
2021/12/25 11:03:09;;;;;;;7.00;3.95;;;1.80;99.90;;;-0.04;100.00;100392.56;2568246;30;137811;-40
2021/12/25 11:05:47;;;;;;;6.55;4.38;;;1.80;99.90;;;0.02;100.00;100391.13;2567872;30;136988;-40
2021/12/25 11:08:19;;;;;;;7.75;4.07;;;1.90;99.90;;;0.07;100.00;100392.34;2567642;30;137445;-41
2021/12/25 11:10:54;;;;;;;6.65;3.90;;;1.90;99.90;;;-0.06;100.00;100394.56;2568423;30;137541;-40
2021/12/25 11:13:35;;;;;;;5.85;3.58;;;1.90;99.90;;;-0.06;100.00;100399.91;2568292;30;137493;-40
2021/12/25 11:16:20;;;;;;;7.10;3.83;;;1.90;99.90;;;-0.07;100.00;100390.19;2566849;30;137651;-41
2021/12/25 11:19:08;;;;;;;7.18;3.78;;;1.80;99.90;;;-0.07;100.00;100387.50;2568401;30;137308;-41
2021/12/25 11:21:42;;;;;;;7.13;3.67;;;1.80;99.90;;;-0.12;100.00;100395.19;2568708;30;136778;-40
2021/12/25 11:24:42;;;;;;;6.20;3.47;;;1.80;99.90;;;-0.09;100.00;100403.78;2567346;30;136906;-40
2021/12/25 11:27:10;;;;;;;5.65;3.30;;;1.80;99.90;;;-0.11;100.00;100412.94;2567710;30;137331;-40
2021/12/25 11:29:38;;;;;;;5.57;3.13;;;1.80;99.90;;;-0.12;100.00;100406.75;2566145;30;138589;-40
2021/12/25 11:32:16;;;;;;;8.20;3.20;;;1.80;99.90;;;-0.11;100.00;100415.63;2568079;30;137542;-40
2021/12/25 11:34:44;;;;;;;5.90;3.77;;;1.80;99.90;;;-0.18;100.00;100423.44;2566040;30;137938;-41
2021/12/25 11:37:13;;;;;;;5.93;3.05;;;1.70;99.90;;;-0.13;100.00;100425.69;2567842;30;137053;-41
2021/12/25 11:39:44;;;;;;;5.45;3.03;;;1.70;99.90;;;-0.09;100.00;100427.91;2568509;30;138128;-40
2021/12/25 11:42:12;;;;;;;6.80;3.72;;;1.80;99.90;;;-0.12;100.00;100422.84;2567663;30;138342;-41
2021/12/25 11:44:45;;;;;;;5.50;3.65;;;1.80;99.90;;;-0.03;100.00;100427.28;2566936;30;139244;-41